sensor_id;sensor_type;location;lat;lon;timestamp;pressure;altitude;pressure_sealevel;temperature;humidity
9235;BME280;4652;42.716;23.218;2023-05-19T00:00:25;95061.72;;;11.96;100.00
9235;BME280;4652;42.716;23.218;2023-05-19T00:07:09;95065.84;;;12.07;100.00
9235;BME280;4652;42.716;23.218;2023-05-19T00:13:52;95018.16;;;11.84;100.00
9235;BME280;4652;42.716;23.218;2023-05-19T00:20:34;95073.72;;;12.22;100.00
9235;BME280;4652;42.716;23.218;2023-05-19T00:27:19;95045.91;;;12.21;100.00
9235;BME280;4652;42.716;23.218;2023-05-19T00:34:01;95054.81;;;12.22;100.00
9235;BME280;4652;42.716;23.218;2023-05-19T00:40:43;95057.44;;;12.27;100.00
9235;BME280;4652;42.716;23.218;2023-05-19T00:47:26;95038.31;;;12.23;100.00
9235;BME280;4652;42.716;23.218;2023-05-19T00:54:08;95036.44;;;12.05;100.00
9235;BME280;4652;42.716;23.218;2023-05-19T01:32:31;95041.88;;;11.20;100.00
9235;BME280;4652;42.716;23.218;2023-05-19T01:39:14;95041.03;;;10.96;100.00
9235;BME280;4652;42.716;23.218;2023-05-19T01:45:57;95055.53;;;10.77;100.00
9235;BME280;4652;42.716;23.218;2023-05-19T01:52:40;95057.75;;;10.41;100.00
9235;BME280;4652;42.716;23.218;2023-05-19T01:59:36;95050.22;;;10.38;100.00
9235;BME280;4652;42.716;23.218;2023-05-19T02:06:28;95064.66;;;10.47;100.00
9235;BME280;4652;42.716;23.218;2023-05-19T02:13:13;95059.47;;;10.55;100.00
9235;BME280;4652;42.716;23.218;2023-05-19T02:19:57;95072.13;;;10.55;100.00
9235;BME280;4652;42.716;23.218;2023-05-19T02:26:39;95069.44;;;10.60;100.00
9235;BME280;4652;42.716;23.218;2023-05-19T02:33:23;95078.22;;;10.71;100.00
9235;BME280;4652;42.716;23.218;2023-05-19T02:40:07;95045.72;;;10.62;100.00
9235;BME280;4652;42.716;23.218;2023-05-19T02:46:50;95073.66;;;10.66;100.00
9235;BME280;4652;42.716;23.218;2023-05-19T02:53:33;95060.91;;;10.48;100.00
9235;BME280;4652;42.716;23.218;2023-05-19T03:00:15;95063.75;;;10.61;100.00
9235;BME280;4652;42.716;23.218;2023-05-19T03:06:57;95081.94;;;10.75;100.00
9235;BME280;4652;42.716;23.218;2023-05-19T03:13:41;95095.94;;;10.77;100.00
9235;BME280;4652;42.716;23.218;2023-05-19T03:20:23;95091.22;;;10.92;100.00
9235;BME280;4652;42.716;23.218;2023-05-19T03:27:05;95087.94;;;10.95;100.00
9235;BME280;4652;42.716;23.218;2023-05-19T03:33:48;95075.50;;;10.99;100.00
9235;BME280;4652;42.716;23.218;2023-05-19T03:40:30;95084.31;;;11.10;100.00
9235;BME280;4652;42.716;23.218;2023-05-19T03:47:12;95074.09;;;11.07;100.00
9235;BME280;4652;42.716;23.218;2023-05-19T03:53:55;95071.78;;;10.95;100.00
9235;BME280;4652;42.716;23.218;2023-05-19T04:00:37;95094.97;;;11.20;100.00
9235;BME280;4652;42.716;23.218;2023-05-19T04:07:19;95093.13;;;11.39;100.00
9235;BME280;4652;42.716;23.218;2023-05-19T04:14:03;95096.84;;;11.67;100.00
9235;BME280;4652;42.716;23.218;2023-05-19T04:20:45;95093.03;;;12.29;100.00
9235;BME280;4652;42.716;23.218;2023-05-19T04:27:27;95088.47;;;13.13;100.00
9235;BME280;4652;42.716;23.218;2023-05-19T04:34:12;95068.94;;;13.43;100.00
9235;BME280;4652;42.716;23.218;2023-05-19T04:40:54;95080.47;;;13.76;100.00
9235;BME280;4652;42.716;23.218;2023-05-19T04:47:36;95083.50;;;14.24;100.00
9235;BME280;4652;42.716;23.218;2023-05-19T04:54:19;95082.34;;;14.52;100.00
9235;BME280;4652;42.716;23.218;2023-05-19T05:01:01;95065.63;;;14.58;100.00
9235;BME280;4652;42.716;23.218;2023-05-19T05:07:43;95084.59;;;15.34;100.00
9235;BME280;4652;42.716;23.218;2023-05-19T05:14:28;95076.94;;;15.66;100.00
9235;BME280;4652;42.716;23.218;2023-05-19T05:21:11;95066.22;;;15.61;100.00
9235;BME280;4652;42.716;23.218;2023-05-19T05:27:53;95079.78;;;16.18;100.00
9235;BME280;4652;42.716;23.218;2023-05-19T05:34:37;95074.34;;;16.35;100.00
9235;BME280;4652;42.716;23.218;2023-05-19T05:41:20;95084.97;;;16.62;100.00
9235;BME280;4652;42.716;23.218;2023-05-19T05:48:03;95064.44;;;16.90;100.00
9235;BME280;4652;42.716;23.218;2023-05-19T05:54:47;95083.41;;;17.33;100.00
9235;BME280;4652;42.716;23.218;2023-05-19T06:01:29;95084.84;;;17.39;100.00
9235;BME280;4652;42.716;23.218;2023-05-19T06:08:11;95086.81;;;17.68;100.00
9235;BME280;4652;42.716;23.218;2023-05-19T06:14:54;95090.31;;;19.30;91.14
9235;BME280;4652;42.716;23.218;2023-05-19T06:21:36;95076.25;;;20.74;75.03
9235;BME280;4652;42.716;23.218;2023-05-19T06:28:18;95091.50;;;26.17;56.04
9235;BME280;4652;42.716;23.218;2023-05-19T06:35:02;95075.94;;;30.31;44.49
9235;BME280;4652;42.716;23.218;2023-05-19T06:41:44;95079.00;;;31.62;42.16
9235;BME280;4652;42.716;23.218;2023-05-19T08:58:29;95063.88;;;21.94;nan
9235;BME280;4652;42.716;23.218;2023-05-19T09:05:11;95068.97;;;22.27;nan
9235;BME280;4652;42.716;23.218;2023-05-19T09:11:54;95056.53;;;22.14;nan
9235;BME280;4652;42.716;23.218;2023-05-19T09:18:38;95054.81;;;22.25;nan
9235;BME280;4652;42.716;23.218;2023-05-19T09:25:22;95052.06;;;21.62;nan
9235;BME280;4652;42.716;23.218;2023-05-19T09:32:04;95046.03;;;22.35;nan
9235;BME280;4652;42.716;23.218;2023-05-19T09:38:48;95053.25;;;21.93;nan
9235;BME280;4652;42.716;23.218;2023-05-19T09:45:30;95037.91;;;22.58;nan
9235;BME280;4652;42.716;23.218;2023-05-19T09:52:14;95037.09;;;22.57;nan
9235;BME280;4652;42.716;23.218;2023-05-19T09:58:58;95025.56;;;22.67;nan
9235;BME280;4652;42.716;23.218;2023-05-19T10:05:41;95026.84;;;22.89;nan
9235;BME280;4652;42.716;23.218;2023-05-19T10:12:25;95026.16;;;22.07;nan
9235;BME280;4652;42.716;23.218;2023-05-19T10:19:09;95021.84;;;21.75;nan
9235;BME280;4652;42.716;23.218;2023-05-19T10:25:54;94994.47;;;22.25;nan
9235;BME280;4652;42.716;23.218;2023-05-19T10:32:39;94987.94;;;20.77;nan
9235;BME280;4652;42.716;23.218;2023-05-19T10:39:24;95005.97;;;20.78;nan
9235;BME280;4652;42.716;23.218;2023-05-19T10:46:09;95004.28;;;21.01;nan
9235;BME280;4652;42.716;23.218;2023-05-19T10:52:52;94994.44;;;21.90;nan
9235;BME280;4652;42.716;23.218;2023-05-19T10:59:37;94997.00;;;21.36;nan
9235;BME280;4652;42.716;23.218;2023-05-19T11:06:24;94996.28;;;21.86;nan
9235;BME280;4652;42.716;23.218;2023-05-19T11:13:06;94987.78;;;22.42;nan
9235;BME280;4652;42.716;23.218;2023-05-19T11:19:53;94977.81;;;22.53;nan
9235;BME280;4652;42.716;23.218;2023-05-19T11:26:41;94979.28;;;23.27;nan
9235;BME280;4652;42.716;23.218;2023-05-19T11:33:24;94963.53;;;22.09;nan
9235;BME280;4652;42.716;23.218;2023-05-19T11:40:09;94966.84;;;22.18;nan
9235;BME280;4652;42.716;23.218;2023-05-19T11:46:52;94964.81;;;22.15;nan
9235;BME280;4652;42.716;23.218;2023-05-19T11:53:34;94985.44;;;21.58;nan
9235;BME280;4652;42.716;23.218;2023-05-19T12:00:21;94983.59;;;21.03;nan
9235;BME280;4652;42.716;23.218;2023-05-19T12:07:03;94984.44;;;21.20;nan
9235;BME280;4652;42.716;23.218;2023-05-19T12:13:46;94981.97;;;20.87;nan
9235;BME280;4652;42.716;23.218;2023-05-19T12:20:31;95010.44;;;20.30;nan
9235;BME280;4652;42.716;23.218;2023-05-19T12:27:17;95028.88;;;19.24;nan
9235;BME280;4652;42.716;23.218;2023-05-19T12:34:00;95049.28;;;18.11;nan
9235;BME280;4652;42.716;23.218;2023-05-19T12:40:43;95042.34;;;17.00;nan
9235;BME280;4652;42.716;23.218;2023-05-19T12:47:29;95030.06;;;16.86;nan
9235;BME280;4652;42.716;23.218;2023-05-19T12:54:13;95016.03;;;17.22;nan
9235;BME280;4652;42.716;23.218;2023-05-19T19:32:04;95114.06;;;16.53;77.08
9235;BME280;4652;42.716;23.218;2023-05-19T19:38:48;95122.78;;;16.33;84.24
9235;BME280;4652;42.716;23.218;2023-05-19T19:45:30;95137.63;;;16.10;94.60
9235;BME280;4652;42.716;23.218;2023-05-19T19:52:15;95139.56;;;15.70;100.00
9235;BME280;4652;42.716;23.218;2023-05-19T19:58:57;95130.56;;;15.61;100.00
9235;BME280;4652;42.716;23.218;2023-05-19T20:05:39;95150.84;;;15.63;100.00
9235;BME280;4652;42.716;23.218;2023-05-19T20:12:24;95128.47;;;15.27;100.00
9235;BME280;4652;42.716;23.218;2023-05-19T20:19:06;95169.84;;;15.10;100.00
9235;BME280;4652;42.716;23.218;2023-05-19T20:25:49;95176.38;;;14.87;100.00
9235;BME280;4652;42.716;23.218;2023-05-19T20:32:32;95140.91;;;14.61;100.00
9235;BME280;4652;42.716;23.218;2023-05-19T20:39:14;95168.66;;;14.81;100.00
9235;BME280;4652;42.716;23.218;2023-05-19T20:45:56;95178.06;;;14.83;100.00
9235;BME280;4652;42.716;23.218;2023-05-19T20:52:40;95186.22;;;14.83;100.00
9235;BME280;4652;42.716;23.218;2023-05-19T20:59:22;95179.56;;;14.53;100.00
9235;BME280;4652;42.716;23.218;2023-05-19T21:06:04;95182.72;;;13.79;100.00
9235;BME280;4652;42.716;23.218;2023-05-19T21:12:47;95184.47;;;13.42;100.00
9235;BME280;4652;42.716;23.218;2023-05-19T21:19:28;95186.69;;;13.40;100.00
9235;BME280;4652;42.716;23.218;2023-05-19T21:26:10;95188.94;;;13.01;100.00
9235;BME280;4652;42.716;23.218;2023-05-19T21:32:54;95187.66;;;12.61;100.00
9235;BME280;4652;42.716;23.218;2023-05-19T21:39:36;95200.22;;;12.52;100.00
9235;BME280;4652;42.716;23.218;2023-05-19T21:46:17;95194.44;;;12.40;100.00
9235;BME280;4652;42.716;23.218;2023-05-19T21:53:01;95188.00;;;12.17;100.00
9235;BME280;4652;42.716;23.218;2023-05-19T21:59:43;95192.50;;;12.03;100.00
9235;BME280;4652;42.716;23.218;2023-05-19T22:06:25;95187.16;;;11.98;100.00
9235;BME280;4652;42.716;23.218;2023-05-19T22:13:09;95186.44;;;11.93;100.00
9235;BME280;4652;42.716;23.218;2023-05-19T22:19:51;95180.38;;;12.01;100.00
9235;BME280;4652;42.716;23.218;2023-05-19T22:26:33;95181.88;;;12.12;100.00
9235;BME280;4652;42.716;23.218;2023-05-19T22:33:16;95177.63;;;11.82;100.00
9235;BME280;4652;42.716;23.218;2023-05-19T22:39:58;95182.41;;;11.90;100.00
9235;BME280;4652;42.716;23.218;2023-05-19T22:46:40;95193.22;;;11.85;100.00
9235;BME280;4652;42.716;23.218;2023-05-19T22:53:25;95192.84;;;11.73;100.00
9235;BME280;4652;42.716;23.218;2023-05-19T23:00:07;95174.38;;;11.56;100.00
9235;BME280;4652;42.716;23.218;2023-05-19T23:06:49;95181.88;;;11.36;100.00
9235;BME280;4652;42.716;23.218;2023-05-19T23:13:32;95165.94;;;11.10;100.00
9235;BME280;4652;42.716;23.218;2023-05-19T23:20:15;95169.34;;;10.92;100.00
9235;BME280;4652;42.716;23.218;2023-05-19T23:26:57;95155.19;;;10.77;100.00
9235;BME280;4652;42.716;23.218;2023-05-19T23:33:41;95144.03;;;10.88;100.00
9235;BME280;4652;42.716;23.218;2023-05-19T23:40:23;95142.34;;;10.97;100.00
9235;BME280;4652;42.716;23.218;2023-05-19T23:47:05;95133.38;;;11.07;100.00
9235;BME280;4652;42.716;23.218;2023-05-19T23:53:48;95133.09;;;11.08;100.00
